This is the latest recevied weather packets stored in our database for station/object KC4QLP. If no packets are shown the sender has not sent any weather packets the latest 10 day(s).
| Time | Temp. | Humidity | Pressure | Rain* | Wind** | Luminosity | Snow |
|---|---|---|---|---|---|---|---|
| 1777874413 | 11.11° C | 45% | 1006.4 hPa | 0 mm | - | 0 W/m² | - |
| 1777872613 | 11.11° C | 45% | 1006.5 hPa | 0 mm | - | 0 W/m² | - |
| 1777870814 | 11.11° C | 45% | 1006.5 hPa | 0 mm | - | 0 W/m² | - |
| 1777869013 | 11.11° C | 45% | 1006.9 hPa | 0 mm | - | 0 W/m² | - |
| 1777867213 | 11.11° C | 45% | 1006.7 hPa | 0 mm | - | 0 W/m² | - |
| 1777865413 | 11.11° C | 45% | 1007.1 hPa | 0 mm | - | 0 W/m² | - |
| 1777863613 | 11.11° C | 45% | 1007.5 hPa | 0 mm | - | 0 W/m² | - |
| 1777861813 | 11.11° C | 45% | 1006.9 hPa | 0 mm | - | 0 W/m² | - |
| 1777860013 | 11.11° C | 45% | 1007 hPa | 0 mm | - | 0 W/m² | - |
| 1777858213 | 11.11° C | 45% | 1007 hPa | 0 mm | - | 0 W/m² | - |
| 1777856413 | 11.11° C | 45% | 1006.9 hPa | 0 mm | - | 0 W/m² | - |
| 1777854614 | 11.11° C | 45% | 1006.6 hPa | 0 mm | - | 0 W/m² | - |
| 1777852813 | 11.11° C | 45% | 1006.2 hPa | 0 mm | - | 0 W/m² | - |
| 1777851013 | 11.11° C | 45% | 1006.2 hPa | 0 mm | - | 0 W/m² | - |
| 1777849214 | 11.67° C | 44% | 1006 hPa | 0 mm | - | 0 W/m² | - |
| 1777847414 | 12.22° C | 41% | 1005.7 hPa | 0 mm | - | 0 W/m² | - |
| 1777845613 | 12.78° C | 38% | 1005.7 hPa | 0 mm | - | 0 W/m² | - |
| 1777843814 | 13.89° C | 35% | 1005.7 hPa | 0 mm | - | 0 W/m² | - |
| 1777842014 | 13.33° C | 34% | 1005.4 hPa | 0 mm | - | 0 W/m² | - |
| 1777840214 | 13.89° C | 33% | 1005.6 hPa | 0 mm | - | 0 W/m² | - |
| 1777838414 | 13.89° C | 33% | 1005.8 hPa | 0 mm | - | 0 W/m² | - |
| 1777836614 | 13.33° C | 34% | 1006.3 hPa | 0 mm | - | 0 W/m² | - |
| 1777834814 | 12.78° C | 34% | 1006.7 hPa | 0 mm | - | 0 W/m² | - |
| 1777833014 | 11.67° C | 39% | 1007 hPa | 0 mm | - | 0 W/m² | - |
| 1777831214 | 11.11° C | 42% | 1007.2 hPa | 0 mm | - | 0 W/m² | - |
* Rain latest hour (hover to see other rain measurements)
** Current wind speed in m/s (hover to see current wind gust speed)